sensor_id;sensor_type;location;lat;lon;timestamp;temperature;humidity
11188;DHT22;5650;52.700;7.306;2024-01-10T00:00:07;-1.60;99.90
11188;DHT22;5650;52.700;7.306;2024-01-10T00:02:37;-1.70;99.90
11188;DHT22;5650;52.700;7.306;2024-01-10T00:05:05;-1.80;99.90
11188;DHT22;5650;52.700;7.306;2024-01-10T00:07:35;-1.60;99.90
11188;DHT22;5650;52.700;7.306;2024-01-10T00:10:08;-1.80;99.90
11188;DHT22;5650;52.700;7.306;2024-01-10T00:12:38;-2.00;99.90
11188;DHT22;5650;52.700;7.306;2024-01-10T00:15:12;-1.70;99.90
11188;DHT22;5650;52.700;7.306;2024-01-10T00:17:41;-1.70;99.90
11188;DHT22;5650;52.700;7.306;2024-01-10T00:20:11;-1.70;99.90
11188;DHT22;5650;52.700;7.306;2024-01-10T00:22:38;-1.80;99.90
11188;DHT22;5650;52.700;7.306;2024-01-10T00:25:06;-2.00;99.90
11188;DHT22;5650;52.700;7.306;2024-01-10T00:27:33;-2.20;99.90
11188;DHT22;5650;52.700;7.306;2024-01-10T00:30:04;-2.30;99.90
11188;DHT22;5650;52.700;7.306;2024-01-10T00:32:39;-2.40;99.90
11188;DHT22;5650;52.700;7.306;2024-01-10T00:35:09;-2.50;99.90
11188;DHT22;5650;52.700;7.306;2024-01-10T00:37:40;-2.50;99.90
11188;DHT22;5650;52.700;7.306;2024-01-10T00:40:09;-2.60;99.90
11188;DHT22;5650;52.700;7.306;2024-01-10T00:42:36;-2.50;99.90
11188;DHT22;5650;52.700;7.306;2024-01-10T00:45:09;-2.40;99.90
11188;DHT22;5650;52.700;7.306;2024-01-10T00:47:36;-2.40;99.90
11188;DHT22;5650;52.700;7.306;2024-01-10T00:50:04;-2.50;99.90
11188;DHT22;5650;52.700;7.306;2024-01-10T00:52:33;-2.60;99.90
11188;DHT22;5650;52.700;7.306;2024-01-10T00:55:00;-2.50;99.90
11188;DHT22;5650;52.700;7.306;2024-01-10T00:57:27;-2.50;99.90
11188;DHT22;5650;52.700;7.306;2024-01-10T00:59:54;-2.40;99.90
11188;DHT22;5650;52.700;7.306;2024-01-10T01:02:21;-2.60;99.90
11188;DHT22;5650;52.700;7.306;2024-01-10T01:04:49;-2.60;99.90
11188;DHT22;5650;52.700;7.306;2024-01-10T01:07:16;-2.50;99.90
11188;DHT22;5650;52.700;7.306;2024-01-10T01:09:48;-2.60;99.90
11188;DHT22;5650;52.700;7.306;2024-01-10T01:12:15;-2.60;99.90
11188;DHT22;5650;52.700;7.306;2024-01-10T01:14:42;-2.70;99.90
11188;DHT22;5650;52.700;7.306;2024-01-10T01:17:09;-2.70;99.90
11188;DHT22;5650;52.700;7.306;2024-01-10T01:19:39;-2.60;99.90
11188;DHT22;5650;52.700;7.306;2024-01-10T01:22:06;-2.50;99.90
11188;DHT22;5650;52.700;7.306;2024-01-10T01:24:34;-2.50;99.90
11188;DHT22;5650;52.700;7.306;2024-01-10T01:27:03;-2.40;99.90
11188;DHT22;5650;52.700;7.306;2024-01-10T01:29:32;-2.50;99.90
11188;DHT22;5650;52.700;7.306;2024-01-10T01:32:02;-2.60;99.90
11188;DHT22;5650;52.700;7.306;2024-01-10T01:34:30;-2.70;99.90
11188;DHT22;5650;52.700;7.306;2024-01-10T01:36:57;-2.50;99.90
11188;DHT22;5650;52.700;7.306;2024-01-10T01:39:24;-2.50;99.90
11188;DHT22;5650;52.700;7.306;2024-01-10T01:41:51;-2.70;99.90
11188;DHT22;5650;52.700;7.306;2024-01-10T01:44:20;-2.50;99.90
11188;DHT22;5650;52.700;7.306;2024-01-10T01:46:50;-2.40;99.90
11188;DHT22;5650;52.700;7.306;2024-01-10T01:49:18;-2.40;99.90
11188;DHT22;5650;52.700;7.306;2024-01-10T01:51:46;-2.50;99.90
11188;DHT22;5650;52.700;7.306;2024-01-10T01:54:13;-2.50;99.90
11188;DHT22;5650;52.700;7.306;2024-01-10T01:56:42;-2.50;99.90
11188;DHT22;5650;52.700;7.306;2024-01-10T01:59:11;-2.50;99.90
11188;DHT22;5650;52.700;7.306;2024-01-10T02:01:45;-2.40;99.90
11188;DHT22;5650;52.700;7.306;2024-01-10T02:04:13;-2.40;99.90
11188;DHT22;5650;52.700;7.306;2024-01-10T02:06:40;-2.20;99.90
11188;DHT22;5650;52.700;7.306;2024-01-10T02:09:08;-2.30;99.90
11188;DHT22;5650;52.700;7.306;2024-01-10T02:11:35;-2.40;99.90
11188;DHT22;5650;52.700;7.306;2024-01-10T02:14:03;-2.60;99.90
11188;DHT22;5650;52.700;7.306;2024-01-10T02:16:30;-2.70;99.90
11188;DHT22;5650;52.700;7.306;2024-01-10T02:18:59;-2.50;99.90
11188;DHT22;5650;52.700;7.306;2024-01-10T02:21:27;-2.40;99.90
11188;DHT22;5650;52.700;7.306;2024-01-10T02:23:54;-2.70;99.90
11188;DHT22;5650;52.700;7.306;2024-01-10T02:26:23;-2.70;99.90
11188;DHT22;5650;52.700;7.306;2024-01-10T02:28:50;-2.60;99.90
11188;DHT22;5650;52.700;7.306;2024-01-10T02:31:23;-2.50;99.90
11188;DHT22;5650;52.700;7.306;2024-01-10T02:33:53;-2.40;99.90
11188;DHT22;5650;52.700;7.306;2024-01-10T02:36:20;-2.40;99.90
11188;DHT22;5650;52.700;7.306;2024-01-10T02:38:49;-2.60;99.90
11188;DHT22;5650;52.700;7.306;2024-01-10T02:41:19;-2.70;99.90
11188;DHT22;5650;52.700;7.306;2024-01-10T02:43:48;-2.80;99.90
11188;DHT22;5650;52.700;7.306;2024-01-10T02:46:15;-2.60;99.90
11188;DHT22;5650;52.700;7.306;2024-01-10T02:48:44;-2.50;99.90
11188;DHT22;5650;52.700;7.306;2024-01-10T02:51:14;-2.60;99.90
11188;DHT22;5650;52.700;7.306;2024-01-10T02:53:44;-2.90;99.90
11188;DHT22;5650;52.700;7.306;2024-01-10T02:56:14;-2.60;99.90
11188;DHT22;5650;52.700;7.306;2024-01-10T02:58:44;-2.70;99.90
11188;DHT22;5650;52.700;7.306;2024-01-10T03:01:14;-2.70;99.90
11188;DHT22;5650;52.700;7.306;2024-01-10T03:03:47;-2.80;99.90
11188;DHT22;5650;52.700;7.306;2024-01-10T03:06:15;-2.50;99.90
11188;DHT22;5650;52.700;7.306;2024-01-10T03:08:42;-2.70;99.90
11188;DHT22;5650;52.700;7.306;2024-01-10T03:11:15;-2.60;99.90
11188;DHT22;5650;52.700;7.306;2024-01-10T03:13:43;-2.60;99.90
11188;DHT22;5650;52.700;7.306;2024-01-10T03:16:14;-2.40;99.90
11188;DHT22;5650;52.700;7.306;2024-01-10T03:18:47;-2.50;99.90
11188;DHT22;5650;52.700;7.306;2024-01-10T03:21:22;-2.60;99.90
11188;DHT22;5650;52.700;7.306;2024-01-10T03:24:14;-2.70;99.90
11188;DHT22;5650;52.700;7.306;2024-01-10T03:26:42;-2.60;99.90
11188;DHT22;5650;52.700;7.306;2024-01-10T03:29:13;-2.80;99.90
11188;DHT22;5650;52.700;7.306;2024-01-10T03:31:47;-2.70;99.90
11188;DHT22;5650;52.700;7.306;2024-01-10T03:34:17;-2.80;99.90
11188;DHT22;5650;52.700;7.306;2024-01-10T03:36:47;-2.80;99.90
11188;DHT22;5650;52.700;7.306;2024-01-10T03:39:14;-3.00;99.90
11188;DHT22;5650;52.700;7.306;2024-01-10T03:41:44;-2.70;99.90
11188;DHT22;5650;52.700;7.306;2024-01-10T03:44:14;-2.70;99.90
11188;DHT22;5650;52.700;7.306;2024-01-10T03:46:42;-2.60;99.90
11188;DHT22;5650;52.700;7.306;2024-01-10T03:49:13;-2.70;99.90
11188;DHT22;5650;52.700;7.306;2024-01-10T03:51:40;-2.60;99.90
11188;DHT22;5650;52.700;7.306;2024-01-10T03:54:10;-2.60;99.90
11188;DHT22;5650;52.700;7.306;2024-01-10T03:56:37;-2.80;99.90
11188;DHT22;5650;52.700;7.306;2024-01-10T03:59:11;-2.70;99.90
11188;DHT22;5650;52.700;7.306;2024-01-10T04:01:38;-2.60;99.90
11188;DHT22;5650;52.700;7.306;2024-01-10T04:04:06;-2.60;99.90
11188;DHT22;5650;52.700;7.306;2024-01-10T04:06:39;-2.40;99.90
11188;DHT22;5650;52.700;7.306;2024-01-10T04:09:09;-2.30;99.90
11188;DHT22;5650;52.700;7.306;2024-01-10T04:11:42;-2.30;99.90
11188;DHT22;5650;52.700;7.306;2024-01-10T04:14:14;-2.10;99.90
11188;DHT22;5650;52.700;7.306;2024-01-10T04:16:41;-2.30;99.90
11188;DHT22;5650;52.700;7.306;2024-01-10T04:19:17;-2.10;99.90
11188;DHT22;5650;52.700;7.306;2024-01-10T04:21:46;-2.30;99.90
11188;DHT22;5650;52.700;7.306;2024-01-10T04:24:19;-2.50;99.90
11188;DHT22;5650;52.700;7.306;2024-01-10T04:26:46;-2.40;99.90
11188;DHT22;5650;52.700;7.306;2024-01-10T04:29:13;-2.30;99.90
11188;DHT22;5650;52.700;7.306;2024-01-10T04:31:41;-2.30;99.90
11188;DHT22;5650;52.700;7.306;2024-01-10T04:34:08;-2.30;99.90
11188;DHT22;5650;52.700;7.306;2024-01-10T04:36:41;-2.20;99.90
11188;DHT22;5650;52.700;7.306;2024-01-10T04:39:12;-2.00;99.90
11188;DHT22;5650;52.700;7.306;2024-01-10T04:41:40;-2.30;99.90
11188;DHT22;5650;52.700;7.306;2024-01-10T04:44:12;-2.20;99.90
11188;DHT22;5650;52.700;7.306;2024-01-10T04:46:39;-2.20;99.90
11188;DHT22;5650;52.700;7.306;2024-01-10T04:49:07;-2.00;99.90
11188;DHT22;5650;52.700;7.306;2024-01-10T04:51:44;-2.40;99.90
11188;DHT22;5650;52.700;7.306;2024-01-10T04:54:13;-2.40;99.90
11188;DHT22;5650;52.700;7.306;2024-01-10T04:56:43;-2.20;99.90
11188;DHT22;5650;52.700;7.306;2024-01-10T04:59:10;-2.30;99.90
11188;DHT22;5650;52.700;7.306;2024-01-10T05:01:43;-2.40;99.90
11188;DHT22;5650;52.700;7.306;2024-01-10T05:04:17;-2.20;99.90
11188;DHT22;5650;52.700;7.306;2024-01-10T05:06:44;-2.10;99.90
11188;DHT22;5650;52.700;7.306;2024-01-10T05:09:16;-2.20;99.90
11188;DHT22;5650;52.700;7.306;2024-01-10T05:11:46;-2.10;99.90
11188;DHT22;5650;52.700;7.306;2024-01-10T05:14:16;-2.20;99.90
11188;DHT22;5650;52.700;7.306;2024-01-10T05:16:48;-2.20;99.90
11188;DHT22;5650;52.700;7.306;2024-01-10T05:19:15;-2.20;99.90
11188;DHT22;5650;52.700;7.306;2024-01-10T05:21:42;-2.30;99.90
11188;DHT22;5650;52.700;7.306;2024-01-10T05:24:10;-2.40;99.90
11188;DHT22;5650;52.700;7.306;2024-01-10T05:26:39;-2.50;99.90
11188;DHT22;5650;52.700;7.306;2024-01-10T05:29:06;-2.30;99.90
11188;DHT22;5650;52.700;7.306;2024-01-10T05:31:34;-2.50;99.90
11188;DHT22;5650;52.700;7.306;2024-01-10T05:34:01;-2.30;99.90
11188;DHT22;5650;52.700;7.306;2024-01-10T05:36:30;-2.30;99.90
11188;DHT22;5650;52.700;7.306;2024-01-10T05:38:59;-2.40;99.90
11188;DHT22;5650;52.700;7.306;2024-01-10T05:41:26;-2.40;99.90
11188;DHT22;5650;52.700;7.306;2024-01-10T05:43:56;-2.30;99.90
11188;DHT22;5650;52.700;7.306;2024-01-10T05:46:24;-2.30;99.90
11188;DHT22;5650;52.700;7.306;2024-01-10T05:48:53;-2.30;99.90
11188;DHT22;5650;52.700;7.306;2024-01-10T05:51:21;-2.30;99.90
11188;DHT22;5650;52.700;7.306;2024-01-10T05:53:48;-2.40;99.90
11188;DHT22;5650;52.700;7.306;2024-01-10T05:56:15;-2.40;99.90
11188;DHT22;5650;52.700;7.306;2024-01-10T05:58:42;-2.30;99.90
11188;DHT22;5650;52.700;7.306;2024-01-10T06:01:11;-2.50;99.90
11188;DHT22;5650;52.700;7.306;2024-01-10T06:03:38;-2.50;99.90
11188;DHT22;5650;52.700;7.306;2024-01-10T06:06:06;-2.50;99.90
11188;DHT22;5650;52.700;7.306;2024-01-10T06:08:33;-2.50;99.90
11188;DHT22;5650;52.700;7.306;2024-01-10T06:11:03;-2.50;99.90
11188;DHT22;5650;52.700;7.306;2024-01-10T06:13:31;-2.40;99.90
11188;DHT22;5650;52.700;7.306;2024-01-10T06:15:59;-2.30;99.90
11188;DHT22;5650;52.700;7.306;2024-01-10T06:18:41;-2.20;99.90
11188;DHT22;5650;52.700;7.306;2024-01-10T06:21:12;-2.40;99.90
11188;DHT22;5650;52.700;7.306;2024-01-10T06:23:39;-2.60;99.90
11188;DHT22;5650;52.700;7.306;2024-01-10T06:26:06;-2.60;99.90
11188;DHT22;5650;52.700;7.306;2024-01-10T06:28:33;-2.50;99.90
11188;DHT22;5650;52.700;7.306;2024-01-10T06:31:06;-2.60;99.90
11188;DHT22;5650;52.700;7.306;2024-01-10T06:33:36;-2.70;99.90
11188;DHT22;5650;52.700;7.306;2024-01-10T06:36:08;-2.40;99.90
11188;DHT22;5650;52.700;7.306;2024-01-10T06:38:35;-2.40;99.90
11188;DHT22;5650;52.700;7.306;2024-01-10T06:41:07;-2.40;99.90
11188;DHT22;5650;52.700;7.306;2024-01-10T06:43:37;-2.50;99.90
11188;DHT22;5650;52.700;7.306;2024-01-10T06:46:05;-2.40;99.90
11188;DHT22;5650;52.700;7.306;2024-01-10T06:48:32;-2.50;99.90
11188;DHT22;5650;52.700;7.306;2024-01-10T06:50:59;-2.40;99.90
11188;DHT22;5650;52.700;7.306;2024-01-10T06:53:28;-2.20;99.90
11188;DHT22;5650;52.700;7.306;2024-01-10T06:56:01;-2.20;99.90
11188;DHT22;5650;52.700;7.306;2024-01-10T06:58:28;-2.20;99.90
11188;DHT22;5650;52.700;7.306;2024-01-10T07:00:58;-2.40;99.90
11188;DHT22;5650;52.700;7.306;2024-01-10T07:03:27;-2.50;99.90
11188;DHT22;5650;52.700;7.306;2024-01-10T07:05:57;-2.60;99.90
11188;DHT22;5650;52.700;7.306;2024-01-10T07:08:28;-2.90;99.90
11188;DHT22;5650;52.700;7.306;2024-01-10T07:10:56;-3.40;99.90
11188;DHT22;5650;52.700;7.306;2024-01-10T07:13:26;-3.70;99.90
11188;DHT22;5650;52.700;7.306;2024-01-10T07:15:54;-4.00;99.90
11188;DHT22;5650;52.700;7.306;2024-01-10T07:18:21;-4.20;99.90
11188;DHT22;5650;52.700;7.306;2024-01-10T07:20:48;-4.30;99.90
11188;DHT22;5650;52.700;7.306;2024-01-10T07:23:15;-4.40;99.90
11188;DHT22;5650;52.700;7.306;2024-01-10T07:25:44;-4.40;99.90
11188;DHT22;5650;52.700;7.306;2024-01-10T07:28:11;-4.50;99.90
11188;DHT22;5650;52.700;7.306;2024-01-10T07:30:48;-4.50;99.90
11188;DHT22;5650;52.700;7.306;2024-01-10T07:33:18;-4.50;99.90
11188;DHT22;5650;52.700;7.306;2024-01-10T07:35:46;-4.50;99.90
11188;DHT22;5650;52.700;7.306;2024-01-10T07:38:13;-4.50;99.90
11188;DHT22;5650;52.700;7.306;2024-01-10T07:40:40;-4.60;99.90
11188;DHT22;5650;52.700;7.306;2024-01-10T07:43:09;-4.60;99.90
11188;DHT22;5650;52.700;7.306;2024-01-10T07:45:40;-4.50;99.90
11188;DHT22;5650;52.700;7.306;2024-01-10T07:48:07;-4.60;99.90
11188;DHT22;5650;52.700;7.306;2024-01-10T07:50:36;-4.50;99.90
11188;DHT22;5650;52.700;7.306;2024-01-10T07:53:18;-4.50;99.90
11188;DHT22;5650;52.700;7.306;2024-01-10T07:55:48;-4.40;99.90
11188;DHT22;5650;52.700;7.306;2024-01-10T07:58:18;-4.40;99.90
11188;DHT22;5650;52.700;7.306;2024-01-10T08:00:45;-4.40;99.90
11188;DHT22;5650;52.700;7.306;2024-01-10T08:03:12;-4.50;99.90
11188;DHT22;5650;52.700;7.306;2024-01-10T08:05:42;-4.50;99.90
11188;DHT22;5650;52.700;7.306;2024-01-10T08:08:13;-4.50;99.90
11188;DHT22;5650;52.700;7.306;2024-01-10T08:10:43;-4.50;99.90
11188;DHT22;5650;52.700;7.306;2024-01-10T08:13:10;-4.50;99.90
11188;DHT22;5650;52.700;7.306;2024-01-10T08:15:39;-4.50;99.90
11188;DHT22;5650;52.700;7.306;2024-01-10T08:18:10;-4.50;99.90
11188;DHT22;5650;52.700;7.306;2024-01-10T08:20:43;-4.40;99.90
11188;DHT22;5650;52.700;7.306;2024-01-10T08:23:10;-4.40;99.90
11188;DHT22;5650;52.700;7.306;2024-01-10T08:25:40;-4.40;99.90
11188;DHT22;5650;52.700;7.306;2024-01-10T08:28:09;-4.40;99.90
11188;DHT22;5650;52.700;7.306;2024-01-10T08:30:40;-4.30;99.90
11188;DHT22;5650;52.700;7.306;2024-01-10T08:33:13;-4.30;99.90
11188;DHT22;5650;52.700;7.306;2024-01-10T08:35:43;-4.30;99.90
11188;DHT22;5650;52.700;7.306;2024-01-10T08:38:10;-4.30;99.90
11188;DHT22;5650;52.700;7.306;2024-01-10T08:40:37;-4.30;99.90
11188;DHT22;5650;52.700;7.306;2024-01-10T08:43:07;-4.20;99.90
11188;DHT22;5650;52.700;7.306;2024-01-10T08:45:42;-4.20;99.90
11188;DHT22;5650;52.700;7.306;2024-01-10T08:48:12;-4.10;99.90
11188;DHT22;5650;52.700;7.306;2024-01-10T08:50:40;-4.10;99.90
11188;DHT22;5650;52.700;7.306;2024-01-10T08:53:13;-4.00;99.90
11188;DHT22;5650;52.700;7.306;2024-01-10T08:55:41;-4.00;99.90
11188;DHT22;5650;52.700;7.306;2024-01-10T08:58:09;-4.00;99.90
11188;DHT22;5650;52.700;7.306;2024-01-10T09:00:36;-3.90;99.90
11188;DHT22;5650;52.700;7.306;2024-01-10T09:03:05;-3.90;99.90
11188;DHT22;5650;52.700;7.306;2024-01-10T09:05:33;-3.90;99.90
11188;DHT22;5650;52.700;7.306;2024-01-10T09:08:00;-3.80;99.90
11188;DHT22;5650;52.700;7.306;2024-01-10T09:10:34;-3.80;99.90
11188;DHT22;5650;52.700;7.306;2024-01-10T09:13:09;-3.70;99.90
11188;DHT22;5650;52.700;7.306;2024-01-10T09:15:37;-3.60;99.90
11188;DHT22;5650;52.700;7.306;2024-01-10T09:18:08;-3.60;99.90
11188;DHT22;5650;52.700;7.306;2024-01-10T09:20:41;-3.50;99.90
11188;DHT22;5650;52.700;7.306;2024-01-10T09:23:17;-3.50;99.90
11188;DHT22;5650;52.700;7.306;2024-01-10T09:25:44;-3.40;99.90
11188;DHT22;5650;52.700;7.306;2024-01-10T09:28:12;-3.40;99.90
11188;DHT22;5650;52.700;7.306;2024-01-10T09:30:48;-3.40;99.90
11188;DHT22;5650;52.700;7.306;2024-01-10T09:33:18;-3.40;99.90
11188;DHT22;5650;52.700;7.306;2024-01-10T09:35:46;-3.30;99.90
11188;DHT22;5650;52.700;7.306;2024-01-10T09:38:13;-3.30;99.90
11188;DHT22;5650;52.700;7.306;2024-01-10T09:40:40;-3.30;99.90
11188;DHT22;5650;52.700;7.306;2024-01-10T09:43:08;-3.20;99.90
11188;DHT22;5650;52.700;7.306;2024-01-10T09:45:43;-3.10;99.90
11188;DHT22;5650;52.700;7.306;2024-01-10T09:48:14;-3.10;99.90
11188;DHT22;5650;52.700;7.306;2024-01-10T09:50:43;-3.10;99.90
11188;DHT22;5650;52.700;7.306;2024-01-10T09:53:21;-3.00;99.90
11188;DHT22;5650;52.700;7.306;2024-01-10T09:55:49;-3.00;99.90
11188;DHT22;5650;52.700;7.306;2024-01-10T09:58:16;-2.90;99.90
11188;DHT22;5650;52.700;7.306;2024-01-10T10:00:46;-2.80;99.90
11188;DHT22;5650;52.700;7.306;2024-01-10T10:03:16;-2.80;99.90
11188;DHT22;5650;52.700;7.306;2024-01-10T10:05:46;-2.70;99.90
11188;DHT22;5650;52.700;7.306;2024-01-10T10:08:14;-2.70;99.90
11188;DHT22;5650;52.700;7.306;2024-01-10T10:10:51;-2.60;99.90
11188;DHT22;5650;52.700;7.306;2024-01-10T10:13:36;-2.60;99.90
11188;DHT22;5650;52.700;7.306;2024-01-10T10:16:08;-2.30;99.90
11188;DHT22;5650;52.700;7.306;2024-01-10T10:18:39;-2.10;99.90
11188;DHT22;5650;52.700;7.306;2024-01-10T10:21:09;-2.10;99.90
11188;DHT22;5650;52.700;7.306;2024-01-10T10:23:39;-2.10;99.40
11188;DHT22;5650;52.700;7.306;2024-01-10T10:26:14;-2.10;99.00
11188;DHT22;5650;52.700;7.306;2024-01-10T10:28:45;-2.10;98.00
11188;DHT22;5650;52.700;7.306;2024-01-10T10:31:13;-2.10;97.70
11188;DHT22;5650;52.700;7.306;2024-01-10T10:33:44;-2.00;97.10
11188;DHT22;5650;52.700;7.306;2024-01-10T10:36:13;-2.00;96.60
11188;DHT22;5650;52.700;7.306;2024-01-10T10:38:41;-1.90;96.60
11188;DHT22;5650;52.700;7.306;2024-01-10T10:41:11;-1.90;96.40
11188;DHT22;5650;52.700;7.306;2024-01-10T10:43:39;-1.90;95.80
11188;DHT22;5650;52.700;7.306;2024-01-10T10:46:12;-1.80;95.20
11188;DHT22;5650;52.700;7.306;2024-01-10T10:48:40;-1.80;95.40
11188;DHT22;5650;52.700;7.306;2024-01-10T10:51:11;-1.70;95.10
11188;DHT22;5650;52.700;7.306;2024-01-10T10:53:43;-1.60;94.90
11188;DHT22;5650;52.700;7.306;2024-01-10T10:56:12;-1.60;93.90
11188;DHT22;5650;52.700;7.306;2024-01-10T10:58:41;-1.60;93.50
11188;DHT22;5650;52.700;7.306;2024-01-10T11:01:11;-1.50;93.20
11188;DHT22;5650;52.700;7.306;2024-01-10T11:03:39;-1.50;93.30
11188;DHT22;5650;52.700;7.306;2024-01-10T11:06:17;-1.40;93.00
11188;DHT22;5650;52.700;7.306;2024-01-10T11:08:51;-1.30;92.60
11188;DHT22;5650;52.700;7.306;2024-01-10T11:11:26;-1.30;92.20
11188;DHT22;5650;52.700;7.306;2024-01-10T11:14:09;-1.30;91.30
11188;DHT22;5650;52.700;7.306;2024-01-10T11:17:17;-1.20;89.70
11188;DHT22;5650;52.700;7.306;2024-01-10T11:20:05;-1.20;88.00
11188;DHT22;5650;52.700;7.306;2024-01-10T11:23:02;-1.10;88.50
11188;DHT22;5650;52.700;7.306;2024-01-10T11:25:35;-1.10;88.30
11188;DHT22;5650;52.700;7.306;2024-01-10T11:28:05;-1.00;87.30
11188;DHT22;5650;52.700;7.306;2024-01-10T11:30:34;-1.00;86.40
11188;DHT22;5650;52.700;7.306;2024-01-10T11:33:18;-0.90;86.70
11188;DHT22;5650;52.700;7.306;2024-01-10T11:36:06;-0.90;85.70
11188;DHT22;5650;52.700;7.306;2024-01-10T11:38:42;-0.80;86.00
11188;DHT22;5650;52.700;7.306;2024-01-10T11:41:19;-0.80;85.00
11188;DHT22;5650;52.700;7.306;2024-01-10T11:47:06;-0.60;84.10
11188;DHT22;5650;52.700;7.306;2024-01-10T11:49:34;-0.60;83.40
11188;DHT22;5650;52.700;7.306;2024-01-10T11:52:02;-0.50;81.50
11188;DHT22;5650;52.700;7.306;2024-01-10T11:54:38;-0.50;80.30
11188;DHT22;5650;52.700;7.306;2024-01-10T11:57:20;-0.40;78.10
11188;DHT22;5650;52.700;7.306;2024-01-10T11:59:50;-0.40;80.10
11188;DHT22;5650;52.700;7.306;2024-01-10T12:02:18;-0.30;79.30
11188;DHT22;5650;52.700;7.306;2024-01-10T12:04:45;-0.30;78.50
11188;DHT22;5650;52.700;7.306;2024-01-10T12:07:13;-0.20;76.90
11188;DHT22;5650;52.700;7.306;2024-01-10T12:09:40;-0.20;76.00
11188;DHT22;5650;52.700;7.306;2024-01-10T12:12:09;-0.20;75.90
11188;DHT22;5650;52.700;7.306;2024-01-10T12:14:38;-0.20;76.00
11188;DHT22;5650;52.700;7.306;2024-01-10T12:17:06;-0.10;75.60
11188;DHT22;5650;52.700;7.306;2024-01-10T12:19:34;-0.10;74.60
11188;DHT22;5650;52.700;7.306;2024-01-10T12:22:03;-0.10;74.50
11188;DHT22;5650;52.700;7.306;2024-01-10T12:24:31;-0.10;74.70
11188;DHT22;5650;52.700;7.306;2024-01-10T12:26:58;-0.10;74.10
11188;DHT22;5650;52.700;7.306;2024-01-10T12:29:26;0.00;73.30
11188;DHT22;5650;52.700;7.306;2024-01-10T12:31:55;0.00;71.90
11188;DHT22;5650;52.700;7.306;2024-01-10T12:34:22;0.00;71.30
11188;DHT22;5650;52.700;7.306;2024-01-10T12:36:49;0.00;71.60
11188;DHT22;5650;52.700;7.306;2024-01-10T12:39:21;0.10;71.20
11188;DHT22;5650;52.700;7.306;2024-01-10T12:41:49;0.10;70.60
11188;DHT22;5650;52.700;7.306;2024-01-10T12:44:16;0.10;69.40
11188;DHT22;5650;52.700;7.306;2024-01-10T12:46:50;0.10;67.00
11188;DHT22;5650;52.700;7.306;2024-01-10T12:49:22;0.10;67.20
11188;DHT22;5650;52.700;7.306;2024-01-10T12:51:49;0.10;66.80
11188;DHT22;5650;52.700;7.306;2024-01-10T12:54:17;0.10;65.90
11188;DHT22;5650;52.700;7.306;2024-01-10T12:56:44;0.10;65.90
11188;DHT22;5650;52.700;7.306;2024-01-10T12:59:11;0.10;66.60
11188;DHT22;5650;52.700;7.306;2024-01-10T13:01:39;0.10;66.90
11188;DHT22;5650;52.700;7.306;2024-01-10T13:04:07;0.20;66.30
11188;DHT22;5650;52.700;7.306;2024-01-10T13:06:42;0.20;66.10
11188;DHT22;5650;52.700;7.306;2024-01-10T13:09:11;0.20;65.60
11188;DHT22;5650;52.700;7.306;2024-01-10T13:11:42;0.20;65.60
11188;DHT22;5650;52.700;7.306;2024-01-10T13:14:12;0.20;64.80
11188;DHT22;5650;52.700;7.306;2024-01-10T13:16:42;0.30;65.30
11188;DHT22;5650;52.700;7.306;2024-01-10T13:19:10;0.30;64.20
11188;DHT22;5650;52.700;7.306;2024-01-10T13:21:41;0.30;63.30
11188;DHT22;5650;52.700;7.306;2024-01-10T13:24:09;0.30;62.30
11188;DHT22;5650;52.700;7.306;2024-01-10T13:26:39;0.30;63.00
11188;DHT22;5650;52.700;7.306;2024-01-10T13:29:09;0.30;63.90
11188;DHT22;5650;52.700;7.306;2024-01-10T13:31:41;0.30;63.30
11188;DHT22;5650;52.700;7.306;2024-01-10T13:34:09;0.40;64.00
11188;DHT22;5650;52.700;7.306;2024-01-10T13:36:39;0.40;64.90
11188;DHT22;5650;52.700;7.306;2024-01-10T13:39:13;0.40;66.00
11188;DHT22;5650;52.700;7.306;2024-01-10T13:41:41;0.40;66.10
11188;DHT22;5650;52.700;7.306;2024-01-10T13:44:17;0.40;66.00
11188;DHT22;5650;52.700;7.306;2024-01-10T13:46:44;0.40;67.10
11188;DHT22;5650;52.700;7.306;2024-01-10T13:49:13;0.40;67.00
11188;DHT22;5650;52.700;7.306;2024-01-10T13:51:40;0.40;67.20
11188;DHT22;5650;52.700;7.306;2024-01-10T13:54:08;0.40;67.40
11188;DHT22;5650;52.700;7.306;2024-01-10T13:56:38;0.40;68.60
11188;DHT22;5650;52.700;7.306;2024-01-10T13:59:06;0.40;68.80
11188;DHT22;5650;52.700;7.306;2024-01-10T14:01:33;0.40;68.50
11188;DHT22;5650;52.700;7.306;2024-01-10T14:04:00;0.40;69.00
11188;DHT22;5650;52.700;7.306;2024-01-10T14:06:28;0.40;68.10
11188;DHT22;5650;52.700;7.306;2024-01-10T14:08:55;0.40;68.10
11188;DHT22;5650;52.700;7.306;2024-01-10T14:11:23;0.30;67.50
11188;DHT22;5650;52.700;7.306;2024-01-10T14:13:54;0.30;67.60
11188;DHT22;5650;52.700;7.306;2024-01-10T14:16:21;0.30;68.00
11188;DHT22;5650;52.700;7.306;2024-01-10T14:18:48;0.30;68.30
11188;DHT22;5650;52.700;7.306;2024-01-10T14:21:16;0.30;68.10
11188;DHT22;5650;52.700;7.306;2024-01-10T14:23:45;0.30;67.80
11188;DHT22;5650;52.700;7.306;2024-01-10T14:26:13;0.30;67.20
11188;DHT22;5650;52.700;7.306;2024-01-10T14:28:41;0.30;67.00
11188;DHT22;5650;52.700;7.306;2024-01-10T14:31:10;0.30;67.00
11188;DHT22;5650;52.700;7.306;2024-01-10T14:33:39;0.30;67.50
11188;DHT22;5650;52.700;7.306;2024-01-10T14:36:06;0.20;68.20
11188;DHT22;5650;52.700;7.306;2024-01-10T14:38:34;0.30;68.60
11188;DHT22;5650;52.700;7.306;2024-01-10T14:41:04;0.20;68.20
11188;DHT22;5650;52.700;7.306;2024-01-10T14:43:32;0.20;67.90
11188;DHT22;5650;52.700;7.306;2024-01-10T14:45:59;0.20;68.50
11188;DHT22;5650;52.700;7.306;2024-01-10T14:48:28;0.10;68.60
11188;DHT22;5650;52.700;7.306;2024-01-10T14:50:55;0.10;68.90
11188;DHT22;5650;52.700;7.306;2024-01-10T14:53:22;0.10;68.90
11188;DHT22;5650;52.700;7.306;2024-01-10T14:55:49;0.10;68.90
11188;DHT22;5650;52.700;7.306;2024-01-10T14:58:18;0.10;69.10
11188;DHT22;5650;52.700;7.306;2024-01-10T15:00:45;0.10;69.00
11188;DHT22;5650;52.700;7.306;2024-01-10T15:03:13;0.00;69.40
11188;DHT22;5650;52.700;7.306;2024-01-10T15:05:41;0.00;69.60
11188;DHT22;5650;52.700;7.306;2024-01-10T15:08:09;0.00;69.60
11188;DHT22;5650;52.700;7.306;2024-01-10T15:10:42;-0.10;69.40
11188;DHT22;5650;52.700;7.306;2024-01-10T15:13:16;-0.10;69.20
11188;DHT22;5650;52.700;7.306;2024-01-10T15:15:45;-0.10;69.00
11188;DHT22;5650;52.700;7.306;2024-01-10T15:18:14;-0.10;69.30
11188;DHT22;5650;52.700;7.306;2024-01-10T15:20:43;-0.20;69.70
11188;DHT22;5650;52.700;7.306;2024-01-10T15:23:10;-0.20;70.10
11188;DHT22;5650;52.700;7.306;2024-01-10T15:25:37;-0.20;70.50
11188;DHT22;5650;52.700;7.306;2024-01-10T15:28:05;-0.20;70.80
11188;DHT22;5650;52.700;7.306;2024-01-10T15:30:40;-0.30;71.20
11188;DHT22;5650;52.700;7.306;2024-01-10T15:33:08;0.10;73.10
11188;DHT22;5650;52.700;7.306;2024-01-10T15:35:39;0.30;74.80
11188;DHT22;5650;52.700;7.306;2024-01-10T15:38:08;0.60;72.30
11188;DHT22;5650;52.700;7.306;2024-01-10T15:40:35;0.70;71.80
11188;DHT22;5650;52.700;7.306;2024-01-10T15:43:02;0.90;70.60
11188;DHT22;5650;52.700;7.306;2024-01-10T15:45:39;0.90;71.50
11188;DHT22;5650;52.700;7.306;2024-01-10T15:48:07;0.90;70.00
11188;DHT22;5650;52.700;7.306;2024-01-10T15:50:34;1.00;71.10
11188;DHT22;5650;52.700;7.306;2024-01-10T15:53:04;1.00;71.60
11188;DHT22;5650;52.700;7.306;2024-01-10T15:55:36;0.90;72.10
11188;DHT22;5650;52.700;7.306;2024-01-10T15:58:04;0.80;70.70
11188;DHT22;5650;52.700;7.306;2024-01-10T16:00:34;0.90;70.80
11188;DHT22;5650;52.700;7.306;2024-01-10T16:03:01;0.70;71.70
11188;DHT22;5650;52.700;7.306;2024-01-10T16:05:35;0.60;72.30
11188;DHT22;5650;52.700;7.306;2024-01-10T16:08:03;0.80;72.90